WetterOnline ( https://www.wetteronline.de )

Wetter aktuell Leck

Aktuelles Wetter: Leck (17m)

6-stündlich | Neueste Meldungen
Ortszeit Temperatur Wetter
So, 14.04. 20:00 8.3° C wolkig
So, 14.04. 14:00 10.3° C leicht bewölkt
So, 14.04. 8:00 8.1° C fast wolkenlos
So, 14.04. 2:00 10.9° C bedeckt
Sa, 13.04. 20:00 12.6° C wolkig
Sa, 13.04. 14:00 14.2° C bewölkt
Sa, 13.04. 8:00 10.8° C wolkig
Sa, 13.04. 2:00 8.4° C bewölkt
Ortszeit Temperatur Wetter
So, 14.04. 22:30 7.3° C wolkig
So, 14.04. 22:20 7.3° C wolkig
So, 14.04. 22:10 7.6° C bedeckt
So, 14.04. 22:00 7.5° C wolkig
So, 14.04. 21:50 7.5° C wolkig
So, 14.04. 21:40 7.6° C bedeckt
So, 14.04. 21:30 7.8° C bewölkt
So, 14.04. 21:00 8.0° C Sprühregen
So, 14.04. 20:30 8.2° C bewölkt
So, 14.04. 20:00 8.3° C wolkig
So, 14.04. 19:30 8.6° C bewölkt
Ortszeit Relative Feuchte Sichtweite
So, 14.04. 20:00 73% 40 km
So, 14.04. 14:00 65% 30 km
So, 14.04. 8:00 73% 27 km
So, 14.04. 2:00 88% 23 km
Sa, 13.04. 20:00 91% 20 km
Sa, 13.04. 14:00 77% 30 km
Sa, 13.04. 8:00 94% 15 km
Sa, 13.04. 2:00 95% 16 km
Ortszeit Relative Feuchte Sichtweite
So, 14.04. 22:30 82% 35 km
So, 14.04. 22:20 82% -
So, 14.04. 22:10 80% -
So, 14.04. 22:00 80% 30 km
So, 14.04. 21:50 80% -
So, 14.04. 21:40 78% -
So, 14.04. 21:30 79% 35 km
So, 14.04. 21:00 76% 21 km
So, 14.04. 20:30 74% 35 km
So, 14.04. 20:00 73% 40 km
So, 14.04. 19:30 75% 30 km
Ortszeit Niederschlagsmenge Niederschlagsart
So, 14.04. 20:00 0.1 l/m2 in 12 Std. Regen
So, 14.04. 14:00 0.0 l/m2 in 6 Std. -
So, 14.04. 8:00 0.4 l/m2 in 12 Std. -
So, 14.04. 2:00 0.4 l/m2 in 6 Std. Regen
Sa, 13.04. 20:00 0.0 l/m2 in 12 Std. -
Sa, 13.04. 14:00 0.0 l/m2 in 6 Std. -
Sa, 13.04. 8:00 0.0 l/m2 in 12 Std. -
Sa, 13.04. 2:00 0.0 l/m2 in 6 Std. -
Ortszeit Niederschlagsmenge Niederschlagsart
So, 14.04. 22:30 <0.05 l/m2 in 30 Min Schneeregen
So, 14.04. 22:20 keine Meldung -
So, 14.04. 22:10 keine Meldung -
So, 14.04. 22:00 <0.05 l/m2 in 1 Std. Regen
So, 14.04. 21:50 keine Meldung -
So, 14.04. 21:40 keine Meldung -
So, 14.04. 21:30 <0.05 l/m2 in 30 Min Schneeregen
So, 14.04. 21:00 <0.05 l/m2 in 1 Std. Sprühregen
So, 14.04. 20:30 0.0 l/m2 in 30 Min -
So, 14.04. 20:00 <0.05 l/m2 in 1 Std. Regen
So, 14.04. 19:30 0.0 l/m2 in 30 Min -
Ortszeit Stärke Spitze Richtung
km/h Bft. km/h Grad Sektor
So, 14.04. 20:00 28 4 56 280° W
So, 14.04. 14:00 30 5 52 270° W
So, 14.04. 8:00 29 5 47 280° W
So, 14.04. 2:00 25 4 43 270° W
Sa, 13.04. 20:00 11 2 41 220° SW
Sa, 13.04. 14:00 18 3 32 220° SW
Sa, 13.04. 8:00 14 3 29 240° SW
Sa, 13.04. 2:00 9 2 28 210° SW
Ortszeit Stärke Spitze Richtung
km/h Bft. km/h Grad Sektor
So, 14.04. 22:30 11 2 22 270° W
So, 14.04. 22:20 11 2 - 270° W
So, 14.04. 22:10 14 3 - 270° W
So, 14.04. 22:00 14 3 25 280° W
So, 14.04. 21:50 14 3 - 280° W
So, 14.04. 21:40 17 3 - 280° W
So, 14.04. 21:30 17 3 26 280° W
So, 14.04. 21:00 22 4 36 280° W
So, 14.04. 20:30 22 4 36 270° W
So, 14.04. 20:00 28 4 44 280° W
So, 14.04. 19:30 26 4 41 270° W
Ortszeit Untergrenze Bedeckung Gattung
total tief tief mittel hoch
So, 14.04. 20:00 810 m 8/8 2/8 - - -
So, 14.04. 14:00 810 m 2/8 1/8 - - -
So, 14.04. 8:00 780 m 1/8 1/8 - - -
So, 14.04. 2:00 390 m 8/8 8/8 - - -
Sa, 13.04. 20:00 1110 m 8/8 3/8 - - -
Sa, 13.04. 14:00 450 m 7/8 7/8 - - -
Sa, 13.04. 8:00 6300 m 7/8 2/8 - - -
Sa, 13.04. 2:00 3900 m 8/8 6/8 - - -
Ortszeit Bedeckungsgrad in Achtel und Wolkenuntergrenze
So, 14.04. 22:30 2(600m) 8(3600m) 8(4500m)
So, 14.04. 22:20 2(600m) 8(3600m) 8(4500m)
So, 14.04. 22:10 8
So, 14.04. 22:00 2(780m) 8(3600m) 8(5400m)
So, 14.04. 21:50 2(780m) 8(3600m) 8(5400m)
So, 14.04. 21:40 8
So, 14.04. 21:30 4(630m) 7(1230m) 8(3900m)
So, 14.04. 21:00 5(690m) 7(1290m) 7(4200m)
So, 14.04. 20:30 6(1260m) 8(4500m)
So, 14.04. 20:00 2(810m) 8(5100m) 8(5700m)
So, 14.04. 19:30 1(660m) 7(1200m) 7(5700m)
Ortszeit Luftdruck NN (hPa) Tendenz (hPa in 3 Std.)
So, 14.04. 20:00 1017 - 0,2
So, 14.04. 14:00 1018 + 0,6
So, 14.04. 8:00 1016 + 1,2
So, 14.04. 2:00 1013 - 0,3
Sa, 13.04. 20:00 1015 - 3,4
Sa, 13.04. 14:00 1021 - 0,4
Sa, 13.04. 8:00 1021 - 0,6
Sa, 13.04. 2:00 1023 - 1,2
Ortszeit Luftdruck NN (hPa) Tendenz (hPa in 3 Std.)
So, 14.04. 22:30 1016 - 0,8
So, 14.04. 22:20 1016 keine Meldung
So, 14.04. 22:10 1016 keine Meldung
So, 14.04. 22:00 1016 - 0,8
So, 14.04. 21:50 1016 keine Meldung
So, 14.04. 21:40 1016 keine Meldung
So, 14.04. 21:30 1017 - 0,5
So, 14.04. 21:00 1017 - 0,4
So, 14.04. 20:30 1017 - 0,5
So, 14.04. 20:00 1017 - 0,2
So, 14.04. 19:30 1017 - 0,2
Ortszeit Schneehöhe (cm)
So, 14.04. 20:00 0
So, 14.04. 14:00 0
So, 14.04. 8:00 0
So, 14.04. 2:00 0
Sa, 13.04. 20:00 0
Sa, 13.04. 14:00 0
Sa, 13.04. 8:00 0
Sa, 13.04. 2:00 0
Ortszeit Schneehöhe (cm)
So, 14.04. 22:30 0
So, 14.04. 22:20 0
So, 14.04. 22:10 -
So, 14.04. 22:00 0
So, 14.04. 21:50 0
So, 14.04. 21:40 -
So, 14.04. 21:30 0
So, 14.04. 21:00 0
So, 14.04. 20:30 0
So, 14.04. 20:00 0
So, 14.04. 19:30 0
Link zu dieser Seite / Seite empfehlen

Das Wetter in ...